sensor_id;sensor_type;location;lat;lon;timestamp;P1;durP1;ratioP1;P2;durP2;ratioP2
73154;SDS011;66341;52.418;7.382;2023-06-14T00:00:58;3.20;;;3.20;;
73154;SDS011;66341;52.418;7.382;2023-06-14T00:03:23;3.25;;;3.25;;
73154;SDS011;66341;52.418;7.382;2023-06-14T00:05:49;3.28;;;3.28;;
73154;SDS011;66341;52.418;7.382;2023-06-14T00:08:15;3.27;;;3.27;;
73154;SDS011;66341;52.418;7.382;2023-06-14T00:10:41;3.24;;;3.24;;
73154;SDS011;66341;52.418;7.382;2023-06-14T00:13:07;3.22;;;3.22;;
73154;SDS011;66341;52.418;7.382;2023-06-14T00:15:33;3.27;;;3.27;;
73154;SDS011;66341;52.418;7.382;2023-06-14T00:17:59;2.99;;;2.99;;
73154;SDS011;66341;52.418;7.382;2023-06-14T00:20:28;3.11;;;3.11;;
73154;SDS011;66341;52.418;7.382;2023-06-14T00:22:56;3.18;;;3.18;;
73154;SDS011;66341;52.418;7.382;2023-06-14T00:25:22;3.15;;;3.15;;
73154;SDS011;66341;52.418;7.382;2023-06-14T00:27:51;2.92;;;2.92;;
73154;SDS011;66341;52.418;7.382;2023-06-14T00:30:17;2.92;;;2.92;;
73154;SDS011;66341;52.418;7.382;2023-06-14T00:32:43;2.90;;;2.90;;
73154;SDS011;66341;52.418;7.382;2023-06-14T00:35:09;3.10;;;3.10;;
73154;SDS011;66341;52.418;7.382;2023-06-14T00:37:34;3.03;;;3.03;;
73154;SDS011;66341;52.418;7.382;2023-06-14T00:40:00;2.87;;;2.87;;
73154;SDS011;66341;52.418;7.382;2023-06-14T00:42:26;2.93;;;2.93;;
73154;SDS011;66341;52.418;7.382;2023-06-14T00:44:52;3.22;;;3.22;;
73154;SDS011;66341;52.418;7.382;2023-06-14T00:47:18;2.91;;;2.91;;
73154;SDS011;66341;52.418;7.382;2023-06-14T00:49:46;2.85;;;2.85;;
73154;SDS011;66341;52.418;7.382;2023-06-14T00:52:13;2.86;;;2.86;;
73154;SDS011;66341;52.418;7.382;2023-06-14T00:54:42;2.89;;;2.89;;
73154;SDS011;66341;52.418;7.382;2023-06-14T00:57:08;3.19;;;3.19;;
73154;SDS011;66341;52.418;7.382;2023-06-14T00:59:42;3.21;;;3.21;;
73154;SDS011;66341;52.418;7.382;2023-06-14T01:02:09;2.92;;;2.92;;
73154;SDS011;66341;52.418;7.382;2023-06-14T01:04:35;3.09;;;3.09;;
73154;SDS011;66341;52.418;7.382;2023-06-14T01:12:19;3.00;;;3.00;;
73154;SDS011;66341;52.418;7.382;2023-06-14T01:14:50;2.96;;;2.96;;
73154;SDS011;66341;52.418;7.382;2023-06-14T01:17:17;2.77;;;2.77;;
73154;SDS011;66341;52.418;7.382;2023-06-14T01:19:43;3.02;;;3.02;;
73154;SDS011;66341;52.418;7.382;2023-06-14T01:22:11;3.06;;;3.06;;
73154;SDS011;66341;52.418;7.382;2023-06-14T01:24:36;3.02;;;3.02;;
73154;SDS011;66341;52.418;7.382;2023-06-14T01:27:04;2.89;;;2.89;;
73154;SDS011;66341;52.418;7.382;2023-06-14T01:29:32;2.83;;;2.83;;
73154;SDS011;66341;52.418;7.382;2023-06-14T01:32:01;2.94;;;2.94;;
73154;SDS011;66341;52.418;7.382;2023-06-14T01:34:27;3.04;;;3.04;;
73154;SDS011;66341;52.418;7.382;2023-06-14T01:36:53;2.98;;;2.98;;
73154;SDS011;66341;52.418;7.382;2023-06-14T01:39:22;2.89;;;2.89;;
73154;SDS011;66341;52.418;7.382;2023-06-14T01:41:49;2.87;;;2.87;;
73154;SDS011;66341;52.418;7.382;2023-06-14T01:44:17;2.89;;;2.89;;
73154;SDS011;66341;52.418;7.382;2023-06-14T01:46:44;2.95;;;2.95;;
73154;SDS011;66341;52.418;7.382;2023-06-14T01:49:10;2.69;;;2.69;;
73154;SDS011;66341;52.418;7.382;2023-06-14T01:51:36;2.99;;;2.99;;
73154;SDS011;66341;52.418;7.382;2023-06-14T01:54:02;2.86;;;2.86;;
73154;SDS011;66341;52.418;7.382;2023-06-14T01:56:27;3.15;;;3.15;;
73154;SDS011;66341;52.418;7.382;2023-06-14T01:58:53;2.95;;;2.95;;
73154;SDS011;66341;52.418;7.382;2023-06-14T02:01:19;3.26;;;3.26;;
73154;SDS011;66341;52.418;7.382;2023-06-14T02:03:47;3.18;;;3.18;;
73154;SDS011;66341;52.418;7.382;2023-06-14T02:06:13;2.97;;;2.97;;
73154;SDS011;66341;52.418;7.382;2023-06-14T02:08:41;3.11;;;3.11;;
73154;SDS011;66341;52.418;7.382;2023-06-14T02:11:06;3.17;;;3.17;;
73154;SDS011;66341;52.418;7.382;2023-06-14T02:13:32;3.17;;;3.17;;
73154;SDS011;66341;52.418;7.382;2023-06-14T02:15:58;3.07;;;3.07;;
73154;SDS011;66341;52.418;7.382;2023-06-14T02:18:24;3.10;;;3.10;;
73154;SDS011;66341;52.418;7.382;2023-06-14T02:20:50;3.06;;;3.06;;
73154;SDS011;66341;52.418;7.382;2023-06-14T02:23:16;3.14;;;3.14;;
73154;SDS011;66341;52.418;7.382;2023-06-14T02:25:41;3.26;;;3.26;;
73154;SDS011;66341;52.418;7.382;2023-06-14T02:28:08;3.12;;;3.12;;
73154;SDS011;66341;52.418;7.382;2023-06-14T02:30:33;3.06;;;3.06;;
73154;SDS011;66341;52.418;7.382;2023-06-14T02:32:59;3.12;;;3.12;;
73154;SDS011;66341;52.418;7.382;2023-06-14T02:35:25;3.23;;;3.23;;
73154;SDS011;66341;52.418;7.382;2023-06-14T02:37:52;2.93;;;2.93;;
73154;SDS011;66341;52.418;7.382;2023-06-14T02:40:18;2.97;;;2.97;;
73154;SDS011;66341;52.418;7.382;2023-06-14T02:42:44;2.93;;;2.93;;
73154;SDS011;66341;52.418;7.382;2023-06-14T02:45:10;2.93;;;2.93;;
73154;SDS011;66341;52.418;7.382;2023-06-14T02:47:36;3.11;;;3.11;;
73154;SDS011;66341;52.418;7.382;2023-06-14T02:50:01;3.16;;;3.16;;
73154;SDS011;66341;52.418;7.382;2023-06-14T02:52:28;3.23;;;3.23;;
73154;SDS011;66341;52.418;7.382;2023-06-14T02:54:53;3.11;;;3.11;;
73154;SDS011;66341;52.418;7.382;2023-06-14T02:57:20;3.23;;;3.23;;
73154;SDS011;66341;52.418;7.382;2023-06-14T02:59:45;3.16;;;3.16;;
73154;SDS011;66341;52.418;7.382;2023-06-14T03:02:11;3.05;;;3.05;;
73154;SDS011;66341;52.418;7.382;2023-06-14T03:04:37;3.18;;;3.18;;
73154;SDS011;66341;52.418;7.382;2023-06-14T03:07:03;3.30;;;3.30;;
73154;SDS011;66341;52.418;7.382;2023-06-14T03:09:37;3.36;;;3.36;;
73154;SDS011;66341;52.418;7.382;2023-06-14T03:12:04;3.25;;;3.25;;
73154;SDS011;66341;52.418;7.382;2023-06-14T03:14:30;3.36;;;3.36;;
73154;SDS011;66341;52.418;7.382;2023-06-14T03:16:56;3.24;;;3.24;;
73154;SDS011;66341;52.418;7.382;2023-06-14T03:19:22;3.56;;;3.56;;
73154;SDS011;66341;52.418;7.382;2023-06-14T03:21:48;3.42;;;3.42;;
73154;SDS011;66341;52.418;7.382;2023-06-14T03:24:15;3.32;;;3.32;;
73154;SDS011;66341;52.418;7.382;2023-06-14T03:26:43;3.29;;;3.29;;
73154;SDS011;66341;52.418;7.382;2023-06-14T03:29:08;3.47;;;3.47;;
73154;SDS011;66341;52.418;7.382;2023-06-14T03:31:34;3.39;;;3.39;;
73154;SDS011;66341;52.418;7.382;2023-06-14T03:34:00;3.35;;;3.35;;
73154;SDS011;66341;52.418;7.382;2023-06-14T03:36:26;3.34;;;3.34;;
73154;SDS011;66341;52.418;7.382;2023-06-14T03:38:53;3.04;;;3.04;;
73154;SDS011;66341;52.418;7.382;2023-06-14T03:41:19;3.22;;;3.22;;
73154;SDS011;66341;52.418;7.382;2023-06-14T03:43:45;3.28;;;3.28;;
73154;SDS011;66341;52.418;7.382;2023-06-14T03:46:10;3.52;;;3.52;;
73154;SDS011;66341;52.418;7.382;2023-06-14T03:48:36;3.45;;;3.45;;
73154;SDS011;66341;52.418;7.382;2023-06-14T03:51:02;3.37;;;3.37;;
73154;SDS011;66341;52.418;7.382;2023-06-14T03:53:28;3.33;;;3.33;;
73154;SDS011;66341;52.418;7.382;2023-06-14T03:55:55;3.56;;;3.56;;
73154;SDS011;66341;52.418;7.382;2023-06-14T03:58:20;3.53;;;3.53;;
73154;SDS011;66341;52.418;7.382;2023-06-14T04:00:46;3.41;;;3.41;;
73154;SDS011;66341;52.418;7.382;2023-06-14T04:03:12;3.25;;;3.25;;
73154;SDS011;66341;52.418;7.382;2023-06-14T04:05:45;3.57;;;3.57;;
73154;SDS011;66341;52.418;7.382;2023-06-14T04:08:14;3.36;;;3.36;;
73154;SDS011;66341;52.418;7.382;2023-06-14T04:10:40;3.34;;;3.34;;
73154;SDS011;66341;52.418;7.382;2023-06-14T04:13:06;3.74;;;3.74;;
73154;SDS011;66341;52.418;7.382;2023-06-14T04:15:32;3.70;;;3.70;;
73154;SDS011;66341;52.418;7.382;2023-06-14T04:17:58;3.32;;;3.32;;
73154;SDS011;66341;52.418;7.382;2023-06-14T04:20:24;3.76;;;3.76;;
73154;SDS011;66341;52.418;7.382;2023-06-14T04:22:51;3.78;;;3.78;;
73154;SDS011;66341;52.418;7.382;2023-06-14T04:25:18;3.82;;;3.82;;
73154;SDS011;66341;52.418;7.382;2023-06-14T04:27:43;3.61;;;3.61;;
73154;SDS011;66341;52.418;7.382;2023-06-14T04:30:09;3.62;;;3.62;;
73154;SDS011;66341;52.418;7.382;2023-06-14T04:32:35;3.74;;;3.74;;
73154;SDS011;66341;52.418;7.382;2023-06-14T04:35:05;3.61;;;3.61;;
73154;SDS011;66341;52.418;7.382;2023-06-14T04:37:31;4.13;;;4.13;;
73154;SDS011;66341;52.418;7.382;2023-06-14T04:39:57;4.38;;;4.38;;
73154;SDS011;66341;52.418;7.382;2023-06-14T04:42:23;4.04;;;4.04;;
73154;SDS011;66341;52.418;7.382;2023-06-14T04:44:53;4.09;;;4.09;;
73154;SDS011;66341;52.418;7.382;2023-06-14T04:47:21;4.05;;;4.05;;
73154;SDS011;66341;52.418;7.382;2023-06-14T04:49:47;3.91;;;3.91;;
73154;SDS011;66341;52.418;7.382;2023-06-14T04:52:12;3.79;;;3.79;;
73154;SDS011;66341;52.418;7.382;2023-06-14T04:54:41;3.76;;;3.76;;
73154;SDS011;66341;52.418;7.382;2023-06-14T04:57:07;4.04;;;4.04;;
73154;SDS011;66341;52.418;7.382;2023-06-14T04:59:33;3.76;;;3.76;;
73154;SDS011;66341;52.418;7.382;2023-06-14T05:02:00;4.07;;;4.07;;
73154;SDS011;66341;52.418;7.382;2023-06-14T05:04:26;4.24;;;4.24;;
73154;SDS011;66341;52.418;7.382;2023-06-14T05:06:53;4.13;;;4.13;;
73154;SDS011;66341;52.418;7.382;2023-06-14T05:09:20;4.01;;;4.01;;
73154;SDS011;66341;52.418;7.382;2023-06-14T05:11:46;3.82;;;3.82;;
73154;SDS011;66341;52.418;7.382;2023-06-14T05:14:13;3.90;;;3.90;;
73154;SDS011;66341;52.418;7.382;2023-06-14T05:16:39;3.93;;;3.93;;
73154;SDS011;66341;52.418;7.382;2023-06-14T05:19:05;3.88;;;3.88;;
73154;SDS011;66341;52.418;7.382;2023-06-14T05:21:32;3.74;;;3.74;;
73154;SDS011;66341;52.418;7.382;2023-06-14T05:23:59;4.10;;;4.10;;
73154;SDS011;66341;52.418;7.382;2023-06-14T05:26:25;4.29;;;4.29;;
73154;SDS011;66341;52.418;7.382;2023-06-14T05:28:54;3.95;;;3.95;;
73154;SDS011;66341;52.418;7.382;2023-06-14T05:31:22;3.85;;;3.85;;
73154;SDS011;66341;52.418;7.382;2023-06-14T05:33:48;4.03;;;4.03;;
73154;SDS011;66341;52.418;7.382;2023-06-14T05:36:13;4.18;;;4.18;;
73154;SDS011;66341;52.418;7.382;2023-06-14T05:38:39;3.94;;;3.94;;
73154;SDS011;66341;52.418;7.382;2023-06-14T05:41:04;4.16;;;4.16;;
73154;SDS011;66341;52.418;7.382;2023-06-14T05:43:30;3.77;;;3.77;;
73154;SDS011;66341;52.418;7.382;2023-06-14T05:45:57;4.11;;;4.11;;
73154;SDS011;66341;52.418;7.382;2023-06-14T05:48:22;4.46;;;4.46;;
73154;SDS011;66341;52.418;7.382;2023-06-14T05:50:50;4.07;;;4.07;;
73154;SDS011;66341;52.418;7.382;2023-06-14T05:53:21;3.83;;;3.83;;
73154;SDS011;66341;52.418;7.382;2023-06-14T05:55:46;3.59;;;3.59;;
73154;SDS011;66341;52.418;7.382;2023-06-14T05:58:12;3.55;;;3.55;;
73154;SDS011;66341;52.418;7.382;2023-06-14T06:00:39;3.70;;;3.70;;
73154;SDS011;66341;52.418;7.382;2023-06-14T06:03:04;3.28;;;3.28;;
73154;SDS011;66341;52.418;7.382;2023-06-14T06:05:30;3.29;;;3.29;;
73154;SDS011;66341;52.418;7.382;2023-06-14T06:07:55;3.56;;;3.56;;
73154;SDS011;66341;52.418;7.382;2023-06-14T06:10:21;3.22;;;3.22;;
73154;SDS011;66341;52.418;7.382;2023-06-14T06:12:46;3.22;;;3.22;;
73154;SDS011;66341;52.418;7.382;2023-06-14T06:15:13;3.45;;;3.45;;
73154;SDS011;66341;52.418;7.382;2023-06-14T06:17:39;3.35;;;3.35;;
73154;SDS011;66341;52.418;7.382;2023-06-14T06:20:05;3.17;;;3.17;;
73154;SDS011;66341;52.418;7.382;2023-06-14T06:22:33;3.49;;;3.49;;
73154;SDS011;66341;52.418;7.382;2023-06-14T06:24:59;3.18;;;3.18;;
73154;SDS011;66341;52.418;7.382;2023-06-14T06:27:24;3.29;;;3.29;;
73154;SDS011;66341;52.418;7.382;2023-06-14T06:29:50;3.28;;;3.28;;
73154;SDS011;66341;52.418;7.382;2023-06-14T06:32:17;3.48;;;3.48;;
73154;SDS011;66341;52.418;7.382;2023-06-14T06:34:42;3.43;;;3.43;;
73154;SDS011;66341;52.418;7.382;2023-06-14T06:37:08;3.27;;;3.27;;
73154;SDS011;66341;52.418;7.382;2023-06-14T06:39:34;3.49;;;3.49;;
73154;SDS011;66341;52.418;7.382;2023-06-14T06:42:00;3.17;;;3.17;;
73154;SDS011;66341;52.418;7.382;2023-06-14T06:44:26;3.21;;;3.21;;
73154;SDS011;66341;52.418;7.382;2023-06-14T06:46:51;3.16;;;3.16;;
73154;SDS011;66341;52.418;7.382;2023-06-14T06:49:16;3.13;;;3.13;;
73154;SDS011;66341;52.418;7.382;2023-06-14T06:51:42;3.11;;;3.11;;
73154;SDS011;66341;52.418;7.382;2023-06-14T06:54:10;3.15;;;3.15;;
73154;SDS011;66341;52.418;7.382;2023-06-14T06:56:36;3.13;;;3.13;;
73154;SDS011;66341;52.418;7.382;2023-06-14T06:59:01;3.24;;;3.24;;
73154;SDS011;66341;52.418;7.382;2023-06-14T07:01:27;3.25;;;3.25;;
73154;SDS011;66341;52.418;7.382;2023-06-14T07:03:54;3.08;;;3.08;;
73154;SDS011;66341;52.418;7.382;2023-06-14T07:06:20;3.38;;;3.38;;
73154;SDS011;66341;52.418;7.382;2023-06-14T07:08:46;3.01;;;3.01;;
73154;SDS011;66341;52.418;7.382;2023-06-14T07:11:14;3.20;;;3.20;;
73154;SDS011;66341;52.418;7.382;2023-06-14T07:13:39;3.20;;;3.20;;
73154;SDS011;66341;52.418;7.382;2023-06-14T07:16:05;3.33;;;3.33;;
73154;SDS011;66341;52.418;7.382;2023-06-14T07:18:31;3.41;;;3.41;;
73154;SDS011;66341;52.418;7.382;2023-06-14T07:20:56;3.26;;;3.26;;
73154;SDS011;66341;52.418;7.382;2023-06-14T07:23:22;3.19;;;3.19;;
73154;SDS011;66341;52.418;7.382;2023-06-14T07:25:48;3.32;;;3.32;;
73154;SDS011;66341;52.418;7.382;2023-06-14T07:28:14;3.14;;;3.14;;
73154;SDS011;66341;52.418;7.382;2023-06-14T07:30:40;3.05;;;3.05;;
73154;SDS011;66341;52.418;7.382;2023-06-14T07:33:05;3.12;;;3.12;;
73154;SDS011;66341;52.418;7.382;2023-06-14T07:35:31;3.04;;;3.04;;
73154;SDS011;66341;52.418;7.382;2023-06-14T07:37:56;2.93;;;2.93;;
73154;SDS011;66341;52.418;7.382;2023-06-14T07:40:22;3.04;;;3.04;;
73154;SDS011;66341;52.418;7.382;2023-06-14T07:42:47;2.77;;;2.77;;
73154;SDS011;66341;52.418;7.382;2023-06-14T07:45:14;2.89;;;2.89;;
73154;SDS011;66341;52.418;7.382;2023-06-14T07:47:40;3.02;;;3.02;;
73154;SDS011;66341;52.418;7.382;2023-06-14T07:50:05;2.70;;;2.70;;
73154;SDS011;66341;52.418;7.382;2023-06-14T07:52:31;2.92;;;2.92;;
73154;SDS011;66341;52.418;7.382;2023-06-14T07:54:56;2.72;;;2.72;;
73154;SDS011;66341;52.418;7.382;2023-06-14T07:57:22;2.60;;;2.60;;
73154;SDS011;66341;52.418;7.382;2023-06-14T07:59:47;2.67;;;2.67;;
73154;SDS011;66341;52.418;7.382;2023-06-14T08:02:13;2.82;;;2.82;;
73154;SDS011;66341;52.418;7.382;2023-06-14T08:04:38;2.72;;;2.72;;
73154;SDS011;66341;52.418;7.382;2023-06-14T08:07:04;2.83;;;2.83;;
73154;SDS011;66341;52.418;7.382;2023-06-14T08:09:30;2.89;;;2.89;;
73154;SDS011;66341;52.418;7.382;2023-06-14T08:11:56;2.79;;;2.79;;
73154;SDS011;66341;52.418;7.382;2023-06-14T08:14:21;2.76;;;2.76;;
73154;SDS011;66341;52.418;7.382;2023-06-14T08:16:48;2.91;;;2.91;;
73154;SDS011;66341;52.418;7.382;2023-06-14T08:19:13;2.89;;;2.89;;
73154;SDS011;66341;52.418;7.382;2023-06-14T08:21:39;2.60;;;2.60;;
73154;SDS011;66341;52.418;7.382;2023-06-14T08:24:05;2.76;;;2.76;;
73154;SDS011;66341;52.418;7.382;2023-06-14T08:26:30;2.79;;;2.79;;
73154;SDS011;66341;52.418;7.382;2023-06-14T08:28:57;2.70;;;2.70;;
73154;SDS011;66341;52.418;7.382;2023-06-14T08:31:23;2.55;;;2.55;;
73154;SDS011;66341;52.418;7.382;2023-06-14T08:33:50;2.49;;;2.49;;
73154;SDS011;66341;52.418;7.382;2023-06-14T08:36:16;2.70;;;2.70;;
73154;SDS011;66341;52.418;7.382;2023-06-14T08:38:41;2.57;;;2.57;;
73154;SDS011;66341;52.418;7.382;2023-06-14T08:41:07;3.21;;;3.21;;
73154;SDS011;66341;52.418;7.382;2023-06-14T08:43:33;2.84;;;2.82;;
73154;SDS011;66341;52.418;7.382;2023-06-14T08:46:03;2.56;;;2.56;;
73154;SDS011;66341;52.418;7.382;2023-06-14T08:48:29;2.22;;;2.22;;
73154;SDS011;66341;52.418;7.382;2023-06-14T08:51:01;2.40;;;2.40;;
73154;SDS011;66341;52.418;7.382;2023-06-14T08:53:32;2.27;;;2.27;;
73154;SDS011;66341;52.418;7.382;2023-06-14T08:56:02;2.36;;;2.36;;
73154;SDS011;66341;52.418;7.382;2023-06-14T08:58:30;2.36;;;2.36;;
73154;SDS011;66341;52.418;7.382;2023-06-14T09:00:57;2.23;;;2.23;;
73154;SDS011;66341;52.418;7.382;2023-06-14T09:03:24;2.20;;;2.20;;
73154;SDS011;66341;52.418;7.382;2023-06-14T09:05:57;2.38;;;2.38;;
73154;SDS011;66341;52.418;7.382;2023-06-14T09:08:27;2.15;;;2.15;;
73154;SDS011;66341;52.418;7.382;2023-06-14T09:10:56;2.21;;;2.21;;
73154;SDS011;66341;52.418;7.382;2023-06-14T09:13:22;2.37;;;2.37;;
73154;SDS011;66341;52.418;7.382;2023-06-14T09:15:49;2.29;;;2.29;;
73154;SDS011;66341;52.418;7.382;2023-06-14T09:18:15;2.37;;;2.37;;
73154;SDS011;66341;52.418;7.382;2023-06-14T09:20:41;2.19;;;2.19;;
73154;SDS011;66341;52.418;7.382;2023-06-14T09:23:06;2.33;;;2.33;;
73154;SDS011;66341;52.418;7.382;2023-06-14T09:25:34;2.86;;;2.86;;
73154;SDS011;66341;52.418;7.382;2023-06-14T09:28:07;2.84;;;2.84;;
73154;SDS011;66341;52.418;7.382;2023-06-14T09:30:33;2.56;;;2.56;;
73154;SDS011;66341;52.418;7.382;2023-06-14T09:32:59;2.33;;;2.33;;
73154;SDS011;66341;52.418;7.382;2023-06-14T09:35:24;2.53;;;2.53;;
73154;SDS011;66341;52.418;7.382;2023-06-14T09:37:50;2.38;;;2.38;;
73154;SDS011;66341;52.418;7.382;2023-06-14T09:40:20;2.38;;;2.38;;
73154;SDS011;66341;52.418;7.382;2023-06-14T09:42:45;2.33;;;2.33;;
73154;SDS011;66341;52.418;7.382;2023-06-14T09:45:12;2.45;;;2.45;;
73154;SDS011;66341;52.418;7.382;2023-06-14T09:47:39;2.41;;;2.41;;
73154;SDS011;66341;52.418;7.382;2023-06-14T09:50:05;2.40;;;2.40;;
73154;SDS011;66341;52.418;7.382;2023-06-14T09:52:31;2.52;;;2.52;;
73154;SDS011;66341;52.418;7.382;2023-06-14T09:54:57;2.48;;;2.48;;
73154;SDS011;66341;52.418;7.382;2023-06-14T09:57:24;2.31;;;2.31;;
73154;SDS011;66341;52.418;7.382;2023-06-14T09:59:56;2.39;;;2.39;;
73154;SDS011;66341;52.418;7.382;2023-06-14T10:02:27;2.30;;;2.30;;
73154;SDS011;66341;52.418;7.382;2023-06-14T10:05:04;2.43;;;2.43;;
73154;SDS011;66341;52.418;7.382;2023-06-14T10:07:35;2.54;;;2.54;;
73154;SDS011;66341;52.418;7.382;2023-06-14T10:10:04;2.41;;;2.41;;
73154;SDS011;66341;52.418;7.382;2023-06-14T10:12:30;2.17;;;2.17;;
73154;SDS011;66341;52.418;7.382;2023-06-14T10:14:56;2.45;;;2.45;;
73154;SDS011;66341;52.418;7.382;2023-06-14T10:19:50;2.38;;;2.38;;
73154;SDS011;66341;52.418;7.382;2023-06-14T10:22:27;2.24;;;2.24;;
73154;SDS011;66341;52.418;7.382;2023-06-14T10:24:55;2.40;;;2.40;;
73154;SDS011;66341;52.418;7.382;2023-06-14T10:27:21;2.27;;;2.27;;
73154;SDS011;66341;52.418;7.382;2023-06-14T10:32:18;2.12;;;2.12;;
73154;SDS011;66341;52.418;7.382;2023-06-14T10:34:44;2.22;;;2.22;;
73154;SDS011;66341;52.418;7.382;2023-06-14T10:37:11;1.97;;;1.97;;
73154;SDS011;66341;52.418;7.382;2023-06-14T10:39:39;2.21;;;2.21;;
73154;SDS011;66341;52.418;7.382;2023-06-14T10:42:06;1.96;;;1.96;;
73154;SDS011;66341;52.418;7.382;2023-06-14T10:44:33;2.27;;;2.27;;
73154;SDS011;66341;52.418;7.382;2023-06-14T10:47:05;2.06;;;2.06;;
73154;SDS011;66341;52.418;7.382;2023-06-14T10:49:42;1.88;;;1.88;;
73154;SDS011;66341;52.418;7.382;2023-06-14T10:52:16;2.32;;;2.32;;
73154;SDS011;66341;52.418;7.382;2023-06-14T10:57:21;2.04;;;2.04;;
73154;SDS011;66341;52.418;7.382;2023-06-14T10:59:47;2.01;;;2.01;;
73154;SDS011;66341;52.418;7.382;2023-06-14T11:04:52;2.06;;;2.06;;
73154;SDS011;66341;52.418;7.382;2023-06-14T11:12:27;2.03;;;2.03;;
73154;SDS011;66341;52.418;7.382;2023-06-14T11:14:53;1.91;;;1.91;;
73154;SDS011;66341;52.418;7.382;2023-06-14T11:17:19;3.71;;;3.71;;
73154;SDS011;66341;52.418;7.382;2023-06-14T11:19:45;6.78;;;6.78;;
73154;SDS011;66341;52.418;7.382;2023-06-14T11:22:11;17.94;;;17.94;;
73154;SDS011;66341;52.418;7.382;2023-06-14T11:24:37;25.40;;;25.40;;
73154;SDS011;66341;52.418;7.382;2023-06-14T11:27:02;45.71;;;45.71;;
73154;SDS011;66341;52.418;7.382;2023-06-14T11:29:28;68.81;;;68.81;;
73154;SDS011;66341;52.418;7.382;2023-06-14T11:31:54;113.68;;;113.68;;
73154;SDS011;66341;52.418;7.382;2023-06-14T11:34:20;138.46;;;138.46;;
73154;SDS011;66341;52.418;7.382;2023-06-14T11:36:45;168.74;;;168.74;;
73154;SDS011;66341;52.418;7.382;2023-06-14T11:39:12;210.26;;;210.26;;
73154;SDS011;66341;52.418;7.382;2023-06-14T11:41:40;279.04;;;279.04;;
73154;SDS011;66341;52.418;7.382;2023-06-14T11:44:06;287.76;;;287.76;;
73154;SDS011;66341;52.418;7.382;2023-06-14T11:46:32;284.05;;;284.05;;
73154;SDS011;66341;52.418;7.382;2023-06-14T11:48:58;260.49;;;260.49;;
73154;SDS011;66341;52.418;7.382;2023-06-14T11:51:29;252.82;;;252.82;;
73154;SDS011;66341;52.418;7.382;2023-06-14T11:53:55;234.88;;;234.88;;
73154;SDS011;66341;52.418;7.382;2023-06-14T11:56:21;228.52;;;228.52;;
73154;SDS011;66341;52.418;7.382;2023-06-14T11:58:47;205.99;;;205.99;;
73154;SDS011;66341;52.418;7.382;2023-06-14T12:01:18;189.92;;;189.92;;
73154;SDS011;66341;52.418;7.382;2023-06-14T12:03:50;197.59;;;197.59;;
73154;SDS011;66341;52.418;7.382;2023-06-14T12:06:25;194.13;;;194.13;;
73154;SDS011;66341;52.418;7.382;2023-06-14T12:08:55;172.65;;;172.65;;
73154;SDS011;66341;52.418;7.382;2023-06-14T12:11:21;181.81;;;181.81;;
73154;SDS011;66341;52.418;7.382;2023-06-14T12:13:47;182.71;;;182.71;;
73154;SDS011;66341;52.418;7.382;2023-06-14T12:16:14;168.98;;;168.98;;
73154;SDS011;66341;52.418;7.382;2023-06-14T12:18:40;161.55;;;161.55;;
73154;SDS011;66341;52.418;7.382;2023-06-14T12:21:06;156.82;;;156.82;;
73154;SDS011;66341;52.418;7.382;2023-06-14T12:23:42;146.18;;;146.18;;
73154;SDS011;66341;52.418;7.382;2023-06-14T12:26:08;129.29;;;129.29;;
73154;SDS011;66341;52.418;7.382;2023-06-14T12:28:33;106.10;;;106.10;;
73154;SDS011;66341;52.418;7.382;2023-06-14T12:30:59;98.66;;;98.66;;
73154;SDS011;66341;52.418;7.382;2023-06-14T12:33:24;86.82;;;86.82;;
73154;SDS011;66341;52.418;7.382;2023-06-14T12:35:50;76.27;;;76.27;;
73154;SDS011;66341;52.418;7.382;2023-06-14T12:38:16;75.12;;;75.12;;
73154;SDS011;66341;52.418;7.382;2023-06-14T12:40:42;67.00;;;67.00;;
73154;SDS011;66341;52.418;7.382;2023-06-14T12:43:07;65.76;;;65.76;;
73154;SDS011;66341;52.418;7.382;2023-06-14T12:45:33;63.22;;;63.22;;
73154;SDS011;66341;52.418;7.382;2023-06-14T12:47:59;59.76;;;59.76;;
73154;SDS011;66341;52.418;7.382;2023-06-14T12:50:24;57.66;;;57.66;;
73154;SDS011;66341;52.418;7.382;2023-06-14T12:52:51;51.20;;;51.20;;
73154;SDS011;66341;52.418;7.382;2023-06-14T12:55:16;46.54;;;46.54;;
73154;SDS011;66341;52.418;7.382;2023-06-14T12:57:44;40.37;;;40.37;;
73154;SDS011;66341;52.418;7.382;2023-06-14T13:00:09;38.81;;;38.81;;
73154;SDS011;66341;52.418;7.382;2023-06-14T13:02:35;36.31;;;36.31;;
73154;SDS011;66341;52.418;7.382;2023-06-14T13:05:01;32.49;;;32.49;;
73154;SDS011;66341;52.418;7.382;2023-06-14T13:07:29;31.12;;;31.12;;
73154;SDS011;66341;52.418;7.382;2023-06-14T13:09:54;30.96;;;30.96;;
73154;SDS011;66341;52.418;7.382;2023-06-14T13:12:20;29.00;;;29.00;;
73154;SDS011;66341;52.418;7.382;2023-06-14T13:14:45;28.31;;;28.31;;
73154;SDS011;66341;52.418;7.382;2023-06-14T13:17:11;27.14;;;27.14;;
73154;SDS011;66341;52.418;7.382;2023-06-14T13:19:36;26.08;;;26.08;;
73154;SDS011;66341;52.418;7.382;2023-06-14T13:22:03;25.79;;;25.79;;
73154;SDS011;66341;52.418;7.382;2023-06-14T13:24:28;23.95;;;23.95;;
73154;SDS011;66341;52.418;7.382;2023-06-14T13:26:55;23.42;;;23.42;;
73154;SDS011;66341;52.418;7.382;2023-06-14T13:29:22;22.97;;;22.97;;
73154;SDS011;66341;52.418;7.382;2023-06-14T13:31:48;22.91;;;22.91;;
73154;SDS011;66341;52.418;7.382;2023-06-14T13:34:13;21.58;;;21.58;;
73154;SDS011;66341;52.418;7.382;2023-06-14T13:36:39;20.66;;;20.66;;
73154;SDS011;66341;52.418;7.382;2023-06-14T13:39:04;19.11;;;19.11;;
73154;SDS011;66341;52.418;7.382;2023-06-14T13:41:30;17.48;;;17.48;;
73154;SDS011;66341;52.418;7.382;2023-06-14T13:43:57;16.29;;;16.29;;
73154;SDS011;66341;52.418;7.382;2023-06-14T13:46:24;15.51;;;15.51;;
73154;SDS011;66341;52.418;7.382;2023-06-14T13:48:49;14.02;;;14.02;;
73154;SDS011;66341;52.418;7.382;2023-06-14T13:51:17;13.96;;;13.96;;
73154;SDS011;66341;52.418;7.382;2023-06-14T13:53:48;13.41;;;13.41;;
73154;SDS011;66341;52.418;7.382;2023-06-14T13:56:14;12.72;;;12.72;;
73154;SDS011;66341;52.418;7.382;2023-06-14T13:58:41;11.83;;;11.83;;
73154;SDS011;66341;52.418;7.382;2023-06-14T14:01:07;11.60;;;11.60;;
73154;SDS011;66341;52.418;7.382;2023-06-14T14:03:33;10.50;;;10.50;;
73154;SDS011;66341;52.418;7.382;2023-06-14T14:06:00;9.62;;;9.62;;
73154;SDS011;66341;52.418;7.382;2023-06-14T14:08:25;9.10;;;9.10;;
73154;SDS011;66341;52.418;7.382;2023-06-14T14:10:51;8.40;;;8.40;;
73154;SDS011;66341;52.418;7.382;2023-06-14T14:13:17;7.96;;;7.96;;
73154;SDS011;66341;52.418;7.382;2023-06-14T14:15:42;7.31;;;7.31;;
73154;SDS011;66341;52.418;7.382;2023-06-14T14:18:08;6.81;;;6.81;;
73154;SDS011;66341;52.418;7.382;2023-06-14T14:20:35;6.77;;;6.77;;
73154;SDS011;66341;52.418;7.382;2023-06-14T14:23:00;6.62;;;6.62;;
73154;SDS011;66341;52.418;7.382;2023-06-14T14:25:27;6.33;;;6.33;;
73154;SDS011;66341;52.418;7.382;2023-06-14T14:27:53;6.09;;;6.09;;
73154;SDS011;66341;52.418;7.382;2023-06-14T14:30:19;5.33;;;5.33;;
73154;SDS011;66341;52.418;7.382;2023-06-14T14:32:49;5.39;;;5.39;;
73154;SDS011;66341;52.418;7.382;2023-06-14T14:35:16;5.19;;;5.19;;
73154;SDS011;66341;52.418;7.382;2023-06-14T14:37:42;5.04;;;5.04;;
73154;SDS011;66341;52.418;7.382;2023-06-14T14:40:07;4.93;;;4.93;;
73154;SDS011;66341;52.418;7.382;2023-06-14T14:42:34;5.07;;;5.07;;
73154;SDS011;66341;52.418;7.382;2023-06-14T14:45:00;4.72;;;4.72;;
73154;SDS011;66341;52.418;7.382;2023-06-14T14:47:25;4.44;;;4.44;;
73154;SDS011;66341;52.418;7.382;2023-06-14T14:49:51;4.22;;;4.22;;
73154;SDS011;66341;52.418;7.382;2023-06-14T14:52:17;4.09;;;4.09;;
73154;SDS011;66341;52.418;7.382;2023-06-14T14:54:43;3.96;;;3.96;;
73154;SDS011;66341;52.418;7.382;2023-06-14T14:57:08;3.75;;;3.75;;